Terminal Aerodrome Forecast
Issued by NWS Sterling, VA

Home | Current Version | Previous Version | Text Only | Print | Product List | Glossary On
Versions: 1 2 3 4 5 6 7 8 9 10 11 12 13 14 15 16 17 18 19 20 21 22 23 24
000
FTUS41 KLWX 262043 AAC
TAFIAD
TAF AMD
KIAD 262043Z 2621/2724 09009KT 6SM BR SCT009 OVC010
     FM262200 11009KT 3SM -DZ BR OVC008
     FM270500 15006KT 1SM -DZ BR OVC008
     FM270700 16006KT 1 1/2SM BR OVC003
     FM271300 19007KT 2SM BR BKN003
     FM271500 21008KT P6SM BKN015
     FM271700 22008KT P6SM BKN060=

USA.gov is the U.S. government's official web portal to all federal, state and local government web resources and services.